createdAt,value
2018-06-25T00:02:24.541Z,2.58
2018-06-25T00:04:52.785Z,2.83
2018-06-25T00:07:21.082Z,1.97
2018-06-25T00:09:54.721Z,2.40
2018-06-25T00:12:22.939Z,2.20
2018-06-25T00:14:51.930Z,2.80
2018-06-25T00:17:20.162Z,3.03
2018-06-25T00:19:48.701Z,2.52
2018-06-25T00:22:16.933Z,2.33
2018-06-25T00:24:45.404Z,2.10
2018-06-25T00:27:13.681Z,2.13
2018-06-25T00:29:42.432Z,2.90
2018-06-25T00:32:11.624Z,2.77
2018-06-25T00:34:39.868Z,2.87
2018-06-25T00:37:08.101Z,2.33
2018-06-25T00:39:39.445Z,2.65
2018-06-25T00:42:07.742Z,2.47
2018-06-25T00:44:36.914Z,3.40
2018-06-25T00:47:05.526Z,2.00
2018-06-25T00:49:34.009Z,2.08
2018-06-25T00:52:02.287Z,2.35
2018-06-25T00:54:34.167Z,2.00
2018-06-25T00:57:02.397Z,2.30
2018-06-25T00:59:41.937Z,2.47
2018-06-25T01:02:10.160Z,2.23
2018-06-25T01:04:38.780Z,2.63
2018-06-25T01:07:07.048Z,2.20
2018-06-25T01:09:35.249Z,2.52
2018-06-25T01:12:03.554Z,2.17
2018-06-25T01:14:31.784Z,2.30
2018-06-25T01:17:00.066Z,2.70
2018-06-25T01:19:28.327Z,2.67
2018-06-25T01:21:56.549Z,3.43
2018-06-25T01:24:24.840Z,2.37
2018-06-25T01:26:53.039Z,2.00
2018-06-25T01:29:21.280Z,2.37
2018-06-25T01:31:49.732Z,2.37
2018-06-25T01:34:18.006Z,2.12
2018-06-25T01:36:46.243Z,2.87
2018-06-25T01:39:14.221Z,2.50
2018-06-25T01:41:42.526Z,2.37
2018-06-25T01:44:11.396Z,2.65
2018-06-25T01:46:39.644Z,2.70
2018-06-25T01:49:08.508Z,3.10
2018-06-25T01:51:37.684Z,2.85
2018-06-25T01:54:06.124Z,2.30
2018-06-25T01:56:34.337Z,2.30
2018-06-25T01:59:02.580Z,2.50
2018-06-25T02:01:31.529Z,3.13
2018-06-25T02:03:59.783Z,2.92
2018-06-25T02:06:28.027Z,2.95
2018-06-25T02:08:57.260Z,2.73
2018-06-25T02:11:25.581Z,2.47
2018-06-25T02:13:53.861Z,2.67
2018-06-25T02:16:22.849Z,2.97
2018-06-25T02:18:51.104Z,3.40
2018-06-25T02:21:19.378Z,2.80
2018-06-25T02:23:47.616Z,3.10
2018-06-25T02:26:16.508Z,4.03
2018-06-25T02:28:44.747Z,2.20
2018-06-25T02:31:12.968Z,2.80
2018-06-25T02:33:41.915Z,2.75
2018-06-25T02:36:10.192Z,2.70
2018-06-25T02:38:39.455Z,3.25
2018-06-25T02:41:08.331Z,3.27
2018-06-25T02:43:36.730Z,3.12
2018-06-25T02:46:05.168Z,4.27
2018-06-25T02:48:33.185Z,3.65
2018-06-25T02:51:01.485Z,2.60
2018-06-25T02:53:29.779Z,3.17
2018-06-25T02:55:59.041Z,2.87
2018-06-25T02:58:27.257Z,3.30
2018-06-25T03:00:56.474Z,3.33
2018-06-25T03:03:24.768Z,3.10
2018-06-25T03:05:52.758Z,3.20
2018-06-25T03:08:21.209Z,2.83
2018-06-25T03:10:50.113Z,3.15
2018-06-25T03:13:18.342Z,3.13
2018-06-25T03:15:46.622Z,3.03
2018-06-25T03:18:14.928Z,3.47
2018-06-25T03:20:43.205Z,3.60
2018-06-25T03:23:11.432Z,3.23
2018-06-25T03:25:40.324Z,2.90
2018-06-25T03:28:11.522Z,3.43
2018-06-25T03:30:39.721Z,3.60
2018-06-25T03:33:07.965Z,3.53
2018-06-25T03:35:36.192Z,2.70
2018-06-25T03:38:04.609Z,2.97
2018-06-25T03:40:32.853Z,3.10
2018-06-25T03:43:01.118Z,4.37
2018-06-25T03:45:29.358Z,6.40
2018-06-25T03:47:57.920Z,2.80
2018-06-25T03:50:26.197Z,2.87
2018-06-25T03:52:55.333Z,3.12
2018-06-25T03:55:23.624Z,4.27
2018-06-25T03:57:51.955Z,3.20
2018-06-25T04:00:20.791Z,4.75
2018-06-25T04:02:49.021Z,2.92
2018-06-25T04:05:17.281Z,4.00
2018-06-25T04:07:45.505Z,3.77
2018-06-25T04:10:13.942Z,3.00
2018-06-25T04:12:42.337Z,3.50
2018-06-25T04:15:10.645Z,3.40
2018-06-25T04:17:38.897Z,3.50
2018-06-25T04:20:07.192Z,4.63
2018-06-25T04:22:35.485Z,2.80
2018-06-25T04:25:03.716Z,3.40
2018-06-25T04:27:32.095Z,3.17
2018-06-25T04:30:00.324Z,3.03
2018-06-25T04:32:29.545Z,3.55
2018-06-25T04:34:57.797Z,3.60
2018-06-25T04:37:26.105Z,4.00
2018-06-25T04:39:54.608Z,2.60
2018-06-25T04:42:23.372Z,3.20
2018-06-25T04:44:55.301Z,2.80
2018-06-25T04:47:23.528Z,3.00
2018-06-25T04:49:51.841Z,2.93
2018-06-25T04:52:20.121Z,2.90
2018-06-25T04:54:48.384Z,2.50
2018-06-25T04:57:16.628Z,2.50
2018-06-25T04:59:45.021Z,3.17
2018-06-25T05:02:13.315Z,3.12
2018-06-25T05:04:41.625Z,2.80
2018-06-25T05:07:10.094Z,3.30
2018-06-25T05:09:38.612Z,2.70
2018-06-25T05:12:06.876Z,3.23
2018-06-25T05:14:38.313Z,3.37
2018-06-25T05:17:06.609Z,3.77
2018-06-25T05:19:34.914Z,3.37
2018-06-25T05:22:03.180Z,3.43
2018-06-25T05:24:31.413Z,2.60
2018-06-25T05:26:59.637Z,3.00
2018-06-25T05:29:27.868Z,3.47
2018-06-25T05:31:56.145Z,3.60
2018-06-25T05:34:24.201Z,2.93
2018-06-25T05:36:52.543Z,4.97
2018-06-25T05:39:20.844Z,2.70
2018-06-25T05:41:49.147Z,3.10
2018-06-25T05:44:17.421Z,3.17
2018-06-25T05:46:45.720Z,3.27
2018-06-25T05:49:14.001Z,3.07
2018-06-25T05:51:42.341Z,2.77
2018-06-25T05:54:10.652Z,2.87
2018-06-25T05:56:38.638Z,2.67
2018-06-25T05:59:07.287Z,2.00
2018-06-25T06:01:38.715Z,1.90
2018-06-25T06:04:07.017Z,3.57
2018-06-25T06:06:35.330Z,2.62
2018-06-25T06:09:03.903Z,2.10
2018-06-25T06:11:32.173Z,1.90
2018-06-25T06:14:00.497Z,1.60
2018-06-25T06:16:28.474Z,2.13
2018-06-25T06:18:56.712Z,1.75
2018-06-25T06:21:24.998Z,2.30
2018-06-25T06:23:53.365Z,1.98
2018-06-25T06:26:22.066Z,2.58
2018-06-25T06:28:50.488Z,1.47
2018-06-25T06:31:21.781Z,1.60
2018-06-25T06:33:50.096Z,1.67
2018-06-25T06:36:18.521Z,2.25
2018-06-25T06:38:46.813Z,1.43
2018-06-25T06:41:15.073Z,2.17
2018-06-25T06:43:43.359Z,1.83
2018-06-25T06:46:15.735Z,2.27
2018-06-25T06:48:44.315Z,2.90
2018-06-25T06:51:12.597Z,1.90
2018-06-25T06:53:40.887Z,1.90
2018-06-25T06:56:09.136Z,1.57
2018-06-25T06:58:38.401Z,1.30
2018-06-25T07:01:06.673Z,1.80
2018-06-25T07:03:34.915Z,2.00
2018-06-25T07:06:04.085Z,1.70
2018-06-25T07:08:32.493Z,1.90
2018-06-25T07:11:00.497Z,1.42
2018-06-25T07:13:28.727Z,1.40
2018-06-25T07:16:01.314Z,2.03
2018-06-25T07:18:29.396Z,1.87
2018-06-25T07:20:57.736Z,1.93
2018-06-25T07:23:26.027Z,2.17
2018-06-25T07:25:54.347Z,1.70
2018-06-25T07:28:23.180Z,1.50
2018-06-25T07:30:51.380Z,1.60
2018-06-25T07:33:19.645Z,1.40
2018-06-25T07:35:48.391Z,1.45
2018-06-25T07:38:16.668Z,1.30
2018-06-25T07:40:45.003Z,1.40
2018-06-25T07:43:14.120Z,1.40
2018-06-25T07:45:43.298Z,1.20
2018-06-25T07:48:11.701Z,1.23
2018-06-25T07:50:39.931Z,1.62
2018-06-25T07:53:08.273Z,1.00
2018-06-25T07:55:36.550Z,1.40
2018-06-25T07:58:05.120Z,0.90
2018-06-25T08:00:33.453Z,1.10
2018-06-25T08:03:01.727Z,1.30
2018-06-25T08:05:30.109Z,1.20
2018-06-25T08:07:58.444Z,1.15
2018-06-25T08:10:27.506Z,1.40
2018-06-25T08:12:55.701Z,1.27
2018-06-25T08:15:23.963Z,1.22
2018-06-25T08:17:52.316Z,1.12
2018-06-25T08:20:21.418Z,2.03
2018-06-25T08:22:49.677Z,1.57
2018-06-25T08:25:17.898Z,1.33
2018-06-25T08:27:46.220Z,1.77
2018-06-25T08:30:14.430Z,1.23
2018-06-25T08:32:47.172Z,1.10
2018-06-25T08:35:15.637Z,0.93
2018-06-25T08:37:44.143Z,1.10
2018-06-25T08:40:13.269Z,0.97
2018-06-25T08:42:41.524Z,0.80
2018-06-25T08:45:09.858Z,1.10
2018-06-25T08:47:41.089Z,1.13
2018-06-25T08:50:09.420Z,1.02
2018-06-25T08:52:37.857Z,1.00
2018-06-25T08:55:06.209Z,1.10
2018-06-25T08:57:34.552Z,0.98
2018-06-25T09:00:02.949Z,1.10
2018-06-25T09:02:31.201Z,1.50
2018-06-25T09:04:59.557Z,1.02
2018-06-25T09:07:27.595Z,0.83
2018-06-25T09:09:55.969Z,0.80
2018-06-25T09:12:24.268Z,0.80
2018-06-25T09:14:52.626Z,1.35
2018-06-25T09:17:20.908Z,0.90
2018-06-25T09:19:49.164Z,0.97
2018-06-25T09:22:17.389Z,1.10
2018-06-25T09:24:45.703Z,0.80
2018-06-25T09:27:13.918Z,0.72
2018-06-25T09:29:42.168Z,0.90
2018-06-25T09:32:10.422Z,0.90
2018-06-25T09:34:43.936Z,0.77
2018-06-25T09:37:12.880Z,0.70
2018-06-25T09:39:41.148Z,0.80
2018-06-25T09:42:09.532Z,0.80
2018-06-25T09:44:37.837Z,0.80
2018-06-25T09:47:06.219Z,0.80
2018-06-25T09:49:34.825Z,0.70
2018-06-25T09:52:03.201Z,0.80
2018-06-25T09:54:31.469Z,0.90
2018-06-25T09:56:59.874Z,0.70
2018-06-25T09:59:28.177Z,0.90
2018-06-25T10:01:56.924Z,0.70
2018-06-25T10:04:25.145Z,0.80
2018-06-25T10:06:53.417Z,0.90
2018-06-25T10:09:22.104Z,0.78
2018-06-25T10:11:50.359Z,0.90
2018-06-25T10:14:20.340Z,1.00
2018-06-25T10:16:48.403Z,1.05
2018-06-25T10:19:16.889Z,0.70
2018-06-25T10:21:45.286Z,0.90
2018-06-25T10:24:13.715Z,1.00
2018-06-25T10:26:41.989Z,0.70
2018-06-25T10:29:11.284Z,0.80
2018-06-25T10:31:39.610Z,0.90
2018-06-25T10:34:07.951Z,1.00
2018-06-25T10:36:36.608Z,0.93
2018-06-25T10:39:07.721Z,0.80
2018-06-25T10:41:36.032Z,0.70
2018-06-25T10:44:08.880Z,0.80
2018-06-25T10:46:37.308Z,1.00
2018-06-25T10:49:05.628Z,1.10
2018-06-25T10:51:33.636Z,0.90
2018-06-25T10:54:01.932Z,0.80
2018-06-25T10:56:30.185Z,1.30
2018-06-25T10:59:00.031Z,1.20
2018-06-25T11:01:28.375Z,1.27
2018-06-25T11:03:57.588Z,1.10
2018-06-25T11:06:26.565Z,1.17
2018-06-25T11:08:54.838Z,2.70
2018-06-25T11:11:23.075Z,1.10
2018-06-25T11:13:51.935Z,1.07
2018-06-25T11:16:20.595Z,0.90
2018-06-25T11:18:48.622Z,1.07
2018-06-25T11:21:21.244Z,1.07
2018-06-25T11:23:49.580Z,0.90
2018-06-25T11:26:17.812Z,1.20
2018-06-25T11:28:46.241Z,1.00
2018-06-25T11:31:15.536Z,0.90
2018-06-25T11:33:43.866Z,0.77
2018-06-25T11:36:13.146Z,1.55
2018-06-25T11:38:42.312Z,0.80
2018-06-25T11:41:10.557Z,1.00
2018-06-25T11:43:38.840Z,0.60
2018-06-25T11:46:07.754Z,0.88
2018-06-25T11:48:35.993Z,1.57
2018-06-25T11:51:04.230Z,1.37
2018-06-25T11:53:32.525Z,1.03
2018-06-25T11:56:00.773Z,1.10
2018-06-25T11:58:29.084Z,0.97
2018-06-25T12:00:57.482Z,0.87
2018-06-25T12:03:26.128Z,1.07
2018-06-25T12:05:54.321Z,0.73
2018-06-25T12:08:22.556Z,1.20
2018-06-25T12:10:51.453Z,0.93
2018-06-25T12:13:19.785Z,0.80
2018-06-25T12:15:48.110Z,1.10
2018-06-25T12:18:16.434Z,1.12
2018-06-25T12:20:44.748Z,1.00
2018-06-25T12:23:13.145Z,0.80
2018-06-25T12:25:41.281Z,0.80
2018-06-25T12:28:09.593Z,0.80
2018-06-25T12:30:38.161Z,1.00
2018-06-25T12:33:06.710Z,0.90
2018-06-25T12:35:35.158Z,0.80
2018-06-25T12:38:03.600Z,1.50
2018-06-25T12:40:32.061Z,0.80
2018-06-25T12:43:01.112Z,0.72
2018-06-25T12:45:29.512Z,1.03
2018-06-25T12:47:58.637Z,0.90
2018-06-25T12:50:27.422Z,1.40
2018-06-25T12:52:56.537Z,1.00
2018-06-25T12:55:24.851Z,0.90
2018-06-25T12:57:53.245Z,0.80
2018-06-25T13:00:21.624Z,1.00
2018-06-25T13:02:51.013Z,0.90
2018-06-25T13:05:19.633Z,1.27
2018-06-25T13:07:47.900Z,0.93
2018-06-25T13:10:16.212Z,0.80
2018-06-25T13:12:44.749Z,1.00
2018-06-25T13:15:13.082Z,1.40
2018-06-25T13:17:42.510Z,1.20
2018-06-25T13:20:10.850Z,1.27
2018-06-25T13:22:47.125Z,0.90
2018-06-25T13:25:15.505Z,0.83
2018-06-25T13:27:44.497Z,1.00
2018-06-25T13:30:13.970Z,1.10
2018-06-25T13:32:42.205Z,1.47
2018-06-25T13:35:11.920Z,1.00
2018-06-25T13:37:45.789Z,1.10
2018-06-25T13:40:14.104Z,1.30
2018-06-25T13:42:42.811Z,0.90
2018-06-25T13:45:11.026Z,1.10
2018-06-25T13:47:39.164Z,0.87
2018-06-25T13:50:07.590Z,1.17
2018-06-25T13:52:35.959Z,1.00
2018-06-25T13:55:05.345Z,1.13
2018-06-25T13:57:33.645Z,0.90
2018-06-25T14:00:02.975Z,1.40
2018-06-25T14:02:31.478Z,1.20
2018-06-25T14:04:59.835Z,1.30
2018-06-25T14:07:28.178Z,0.80
2018-06-25T14:10:03.415Z,1.00
2018-06-25T14:12:31.597Z,0.88
2018-06-25T14:15:00.102Z,1.10
2018-06-25T14:17:28.509Z,1.12
2018-06-25T14:19:56.866Z,1.10
2018-06-25T14:22:25.413Z,1.20
2018-06-25T14:25:01.774Z,1.43
2018-06-25T14:27:35.915Z,0.98
2018-06-25T14:30:10.133Z,1.30
2018-06-25T14:32:38.901Z,0.93
2018-06-25T14:35:12.932Z,1.00
2018-06-25T14:37:41.911Z,1.00
2018-06-25T14:40:10.255Z,1.53
2018-06-25T14:42:38.507Z,1.05
2018-06-25T14:45:07.671Z,1.25
2018-06-25T14:47:35.992Z,1.00
2018-06-25T14:50:04.406Z,0.93
2018-06-25T14:52:32.867Z,1.30
2018-06-25T14:55:01.230Z,1.40
2018-06-25T14:57:30.368Z,1.23
2018-06-25T14:59:58.659Z,1.25
2018-06-25T15:02:27.086Z,0.90
2018-06-25T15:04:55.453Z,1.20
2018-06-25T15:07:23.781Z,1.30
2018-06-25T15:09:52.063Z,1.10
2018-06-25T15:12:20.396Z,1.53
2018-06-25T15:14:48.785Z,1.30
2018-06-25T15:17:17.049Z,1.53
2018-06-25T15:19:45.376Z,0.90
2018-06-25T15:22:13.643Z,1.10
2018-06-25T15:24:46.682Z,1.20
2018-06-25T15:27:15.105Z,1.47
2018-06-25T15:29:43.383Z,1.98
2018-06-25T15:32:11.677Z,1.20
2018-06-25T15:34:39.952Z,1.77
2018-06-25T15:37:08.273Z,1.00
2018-06-25T15:39:48.626Z,1.33
2018-06-25T15:42:19.631Z,2.22
2018-06-25T15:44:48.049Z,2.07
2018-06-25T15:47:16.424Z,1.40
2018-06-25T15:49:45.182Z,1.60
2018-06-25T15:52:14.636Z,1.40
2018-06-25T15:54:46.976Z,1.40
2018-06-25T15:57:15.252Z,1.50
2018-06-25T15:59:44.216Z,1.72
2018-06-25T16:02:12.624Z,1.33
2018-06-25T16:04:41.752Z,1.70
2018-06-25T16:07:10.466Z,1.30
2018-06-25T16:09:40.175Z,1.80
2018-06-25T16:12:08.630Z,1.80
2018-06-25T16:14:39.249Z,1.50
2018-06-25T16:17:07.635Z,1.87
2018-06-25T16:19:36.022Z,1.30
2018-06-25T16:22:04.696Z,1.30
2018-06-25T16:24:33.661Z,1.60
2018-06-25T16:27:05.132Z,1.63
2018-06-25T16:29:34.705Z,1.20
2018-06-25T16:32:02.954Z,1.63
2018-06-25T16:34:31.256Z,1.50
2018-06-25T16:37:00.263Z,1.70
2018-06-25T16:39:29.795Z,1.47
2018-06-25T16:42:02.698Z,2.00
2018-06-25T16:44:31.027Z,1.40
2018-06-25T16:46:59.666Z,1.70
2018-06-25T16:49:29.513Z,1.67
2018-06-25T16:51:58.185Z,1.50
2018-06-25T16:54:26.578Z,1.40
2018-06-25T16:56:56.714Z,1.55
2018-06-25T16:59:26.217Z,2.10
2018-06-25T17:01:56.256Z,1.17
2018-06-25T17:04:27.937Z,1.37
2018-06-25T17:06:58.938Z,1.10
2018-06-25T17:09:27.277Z,1.80
2018-06-25T17:11:56.581Z,1.50
2018-06-25T17:14:24.717Z,1.40
2018-06-25T17:16:53.321Z,1.10
2018-06-25T17:19:21.756Z,1.30
2018-06-25T17:21:50.313Z,2.03
2018-06-25T17:24:18.736Z,2.00
2018-06-25T17:26:47.052Z,1.37
2018-06-25T17:29:15.501Z,1.70
2018-06-25T17:31:43.855Z,1.53
2018-06-25T17:34:16.433Z,1.57
2018-06-25T17:36:45.428Z,1.35
2018-06-25T17:39:16.569Z,1.30
2018-06-25T17:41:49.208Z,1.33
2018-06-25T17:44:19.499Z,1.57
2018-06-25T17:46:47.861Z,1.95
2018-06-25T17:49:16.254Z,1.20
2018-06-25T17:51:44.720Z,1.40
2018-06-25T17:54:13.084Z,1.20
2018-06-25T17:56:41.420Z,3.60
2018-06-25T17:59:10.383Z,3.67
2018-06-25T18:01:41.835Z,1.90
2018-06-25T18:04:10.303Z,1.80
2018-06-25T18:06:39.037Z,1.72
2018-06-25T18:09:09.244Z,1.60
2018-06-25T18:11:41.536Z,1.90
2018-06-25T18:14:09.880Z,1.77
2018-06-25T18:16:39.715Z,2.27
2018-06-25T18:19:08.354Z,1.80
2018-06-25T18:21:37.124Z,1.53
2018-06-25T18:24:05.483Z,1.90
2018-06-25T18:26:36.129Z,1.60
2018-06-25T18:29:05.269Z,1.87
2018-06-25T18:31:33.608Z,1.90
2018-06-25T18:34:01.704Z,2.60
2018-06-25T18:36:30.244Z,1.90
2018-06-25T18:38:59.536Z,1.80
2018-06-25T18:41:27.978Z,1.90
2018-06-25T18:43:56.530Z,1.93
2018-06-25T18:46:24.933Z,2.10
2018-06-25T18:48:53.607Z,2.10
2018-06-25T18:51:23.475Z,2.47
2018-06-25T18:53:51.891Z,2.10
2018-06-25T18:56:20.400Z,2.10
2018-06-25T19:21:24.772Z,2.60
2018-06-25T19:23:53.072Z,2.50
2018-06-25T19:26:22.592Z,2.50
2018-06-25T19:28:51.237Z,2.60
2018-06-25T19:31:19.567Z,3.00
2018-06-25T19:33:47.969Z,2.70
2018-06-25T19:36:16.967Z,2.57
2018-06-25T19:38:45.380Z,2.80
2018-06-25T19:41:14.075Z,2.20
2018-06-25T19:43:42.470Z,2.87
2018-06-25T19:46:11.358Z,2.70
2018-06-25T19:48:39.837Z,3.10
2018-06-25T19:51:08.225Z,2.03
2018-06-25T19:53:37.191Z,2.85
2018-06-25T19:56:05.493Z,3.57
2018-06-25T19:58:33.817Z,2.23
2018-06-25T20:01:02.211Z,2.47
2018-06-25T20:03:30.497Z,3.20
2018-06-25T20:05:59.533Z,2.80
2018-06-25T20:08:27.898Z,3.17
2018-06-25T20:11:00.642Z,2.57
2018-06-25T20:13:29.000Z,2.93
2018-06-25T20:15:57.492Z,2.62
2018-06-25T20:18:25.924Z,3.35
2018-06-25T20:20:54.296Z,2.40
2018-06-25T20:23:23.066Z,3.13
2018-06-25T20:25:51.555Z,2.83
2018-06-25T20:28:20.201Z,3.02
2018-06-25T20:30:48.433Z,3.30
2018-06-25T20:33:17.093Z,3.20
2018-06-25T20:35:45.400Z,3.67
2018-06-25T20:38:13.613Z,2.97
2018-06-25T20:40:42.009Z,2.98
2018-06-25T20:43:10.776Z,3.03
2018-06-25T20:45:39.103Z,3.20
2018-06-25T20:48:07.337Z,2.70
2018-06-25T20:50:35.627Z,3.53
2018-06-25T20:53:03.896Z,2.75
2018-06-25T20:55:33.014Z,3.00
2018-06-25T20:58:01.569Z,3.08
2018-06-25T21:00:29.945Z,2.70
2018-06-25T21:02:58.221Z,2.90
2018-06-25T21:05:26.513Z,3.90
2018-06-25T21:07:55.064Z,3.17
2018-06-25T21:10:23.336Z,2.83
2018-06-25T21:12:51.850Z,2.40
2018-06-25T21:15:21.044Z,2.70
2018-06-25T21:17:49.320Z,2.58
2018-06-25T21:20:17.706Z,3.27
2018-06-25T21:22:45.983Z,2.40
2018-06-25T21:25:14.288Z,2.60
2018-06-25T21:27:42.362Z,2.60
2018-06-25T21:30:13.607Z,2.20
2018-06-25T21:32:41.898Z,3.03
2018-06-25T21:35:11.714Z,2.42
2018-06-25T21:37:39.984Z,2.90
2018-06-25T21:40:08.309Z,2.60
2018-06-25T21:42:36.557Z,2.83
2018-06-25T21:45:04.859Z,2.40
2018-06-25T21:47:33.142Z,2.50
2018-06-25T21:50:01.450Z,3.03
2018-06-25T21:52:30.540Z,3.15
2018-06-25T21:54:58.813Z,3.05
2018-06-25T21:57:27.680Z,3.10
2018-06-25T21:59:56.002Z,3.00
2018-06-25T22:02:25.061Z,2.40
2018-06-25T22:04:53.301Z,2.77
2018-06-25T22:07:21.276Z,2.80
2018-06-25T22:09:49.988Z,2.97
2018-06-25T22:12:18.264Z,2.60
2018-06-25T22:14:46.479Z,3.50
2018-06-25T22:17:17.570Z,2.53
2018-06-25T22:19:45.818Z,2.37
2018-06-25T22:22:14.037Z,3.37
2018-06-25T22:24:42.274Z,4.03
2018-06-25T22:27:10.523Z,2.70
2018-06-25T22:29:38.760Z,3.40
2018-06-25T22:32:07.037Z,2.65
2018-06-25T22:34:35.356Z,2.47
2018-06-25T22:37:03.548Z,2.67
2018-06-25T22:39:32.445Z,2.60
2018-06-25T22:42:00.452Z,3.12
2018-06-25T22:44:29.309Z,3.23
2018-06-25T22:46:57.535Z,2.23
2018-06-25T22:49:25.797Z,3.00
2018-06-25T22:51:54.388Z,2.90
2018-06-25T22:54:22.641Z,2.35
2018-06-25T22:56:51.199Z,3.10
2018-06-25T22:59:19.418Z,2.70
2018-06-25T23:01:50.544Z,3.30
2018-06-25T23:04:19.412Z,2.40
2018-06-25T23:06:47.637Z,2.33
2018-06-25T23:09:16.189Z,2.58
2018-06-25T23:11:44.447Z,2.37
2018-06-25T23:14:12.747Z,2.58
2018-06-25T23:16:41.000Z,2.40
2018-06-25T23:19:09.573Z,2.33
2018-06-25T23:21:37.836Z,2.90
2018-06-25T23:24:06.128Z,2.90
2018-06-25T23:26:34.386Z,2.10
2018-06-25T23:29:02.667Z,2.40
2018-06-25T23:31:30.912Z,2.70
2018-06-25T23:33:59.108Z,2.03
2018-06-25T23:36:27.332Z,3.07
2018-06-25T23:38:55.666Z,2.47
2018-06-25T23:41:23.912Z,2.30
2018-06-25T23:43:52.137Z,2.20
2018-06-25T23:46:20.412Z,2.90
2018-06-25T23:48:53.000Z,2.77
2018-06-25T23:51:21.219Z,2.43
2018-06-25T23:53:49.488Z,2.20
2018-06-25T23:56:17.749Z,2.10
2018-06-25T23:58:46.116Z,2.22
